Time;durP1;ratioP1;P1;durP2;ratioP2;P2;SDS_P1;SDS_P2;PMS_P1;PMS_P2;Temp;Humidity;BMP_temperature;BMP_pressure;BME280_temperature;BME280_humidity;BME280_pressure;Samples;Min_cycle;Max_cycle;Signal;HPM_P1;HPM_P2
2024/04/08 00:00:53;;;;;;;8.50;5.27;;;17.90;1.00;;;;;;5379277;26;20646;-75
2024/04/08 00:03:19;;;;;;;5.50;5.00;;;17.90;1.00;;;;;;5377930;26;20497;-75
2024/04/08 00:05:48;;;;;;;8.83;5.80;;;18.00;1.00;;;;;;5376926;26;21021;-76
2024/04/08 00:08:14;;;;;;;5.77;5.17;;;18.00;1.00;;;;;;5375034;26;20489;-74
2024/04/08 00:10:48;;;;;;;12.23;5.57;;;18.00;1.00;;;;;;5365043;26;20624;-74
2024/04/08 00:13:17;;;;;;;7.93;6.77;;;18.10;1.00;;;;;;5345582;26;20501;-74
2024/04/08 00:15:45;;;;;;;9.23;5.83;;;18.00;1.00;;;;;;5371719;26;22038;-75
2024/04/08 00:18:13;;;;;;;7.77;6.47;;;18.00;1.00;;;;;;5370826;26;20468;-75
2024/04/08 00:20:41;;;;;;;6.93;6.23;;;18.00;1.00;;;;;;5347491;26;21156;-74
2024/04/08 00:23:08;;;;;;;6.63;6.00;;;18.10;1.00;;;;;;5342824;26;21073;-76
2024/04/08 00:25:37;;;;;;;10.60;6.70;;;18.10;1.00;;;;;;5344616;26;20498;-74
2024/04/08 00:28:03;;;;;;;8.30;5.17;;;17.90;1.00;;;;;;5358161;26;20533;-75
2024/04/08 00:30:35;;;;;;;6.23;5.83;;;17.70;1.00;;;;;;5376112;26;20473;-75
2024/04/08 00:33:01;;;;;;;6.07;5.53;;;17.60;1.00;;;;;;5376014;26;20514;-74
2024/04/08 00:35:30;;;;;;;7.97;5.43;;;17.60;1.00;;;;;;5378081;26;20642;-75
2024/04/08 00:37:56;;;;;;;10.83;5.67;;;17.70;1.00;;;;;;5373229;26;21027;-75
2024/04/08 00:40:24;;;;;;;6.80;5.70;;;17.60;1.00;;;;;;5353597;26;20499;-75
2024/04/08 00:42:52;;;;;;;7.33;5.90;;;17.60;1.00;;;;;;5346564;26;20545;-75
2024/04/08 00:45:22;;;;;;;5.50;5.00;;;17.60;1.00;;;;;;5379022;26;20496;-74
2024/04/08 00:47:51;;;;;;;8.20;6.07;;;17.70;1.00;;;;;;5362944;26;20545;-73
2024/04/08 00:50:19;;;;;;;7.30;5.70;;;17.70;1.00;;;;;;5336006;26;20497;-78
2024/04/08 00:52:47;;;;;;;7.27;5.83;;;17.60;1.00;;;;;;5339593;26;21005;-75
2024/04/08 00:55:15;;;;;;;6.23;5.63;;;17.60;1.00;;;;;;5343138;26;20525;-74
2024/04/08 00:57:44;;;;;;;7.00;5.47;;;17.70;1.00;;;;;;5341235;26;20546;-74
2024/04/08 01:00:15;;;;;;;9.10;5.80;;;17.60;1.00;;;;;;5335484;26;20592;-75
2024/04/08 01:02:41;;;;;;;6.13;5.43;;;17.60;1.00;;;;;;5337835;26;20505;-74
2024/04/08 01:05:13;;;;;;;5.63;5.10;;;17.50;1.00;;;;;;5365222;26;20535;-74
2024/04/08 01:07:41;;;;;;;5.53;4.97;;;17.60;1.00;;;;;;5337968;26;20621;-74
2024/04/08 01:10:11;;;;;;;5.77;5.10;;;17.70;1.00;;;;;;5370778;26;20537;-74
2024/04/08 01:12:40;;;;;;;6.97;5.37;;;17.70;1.00;;;;;;5332973;26;21318;-73
2024/04/08 01:15:10;;;;;;;11.17;5.30;;;17.80;1.00;;;;;;5355490;26;21871;-73
2024/04/08 01:17:35;;;;;;;7.30;6.10;;;17.80;1.00;;;;;;5341725;26;21032;-75
2024/04/08 01:20:04;;;;;;;9.53;5.93;;;17.60;1.00;;;;;;5344276;26;20489;-75
2024/04/08 01:22:33;;;;;;;7.97;5.50;;;17.50;1.00;;;;;;5351201;26;22123;-75
2024/04/08 01:25:05;;;;;;;6.83;5.03;;;17.50;1.00;;;;;;5347331;26;21141;-75
2024/04/08 01:27:31;;;;;;;5.90;5.30;;;17.40;1.00;;;;;;5350108;26;20540;-74
2024/04/08 01:30:00;;;;;;;7.00;5.10;;;17.30;1.00;;;;;;5361108;26;20497;-75
2024/04/08 01:32:26;;;;;;;5.63;5.13;;;17.20;1.00;;;;;;5337942;26;20530;-74
2024/04/08 01:34:54;;;;;;;8.77;4.47;;;17.20;1.00;;;;;;5354710;26;20562;-74
2024/04/08 01:37:20;;;;;;;5.00;4.50;;;17.10;1.00;;;;;;5338317;26;20484;-74
2024/04/08 01:39:49;;;;;;;4.87;4.40;;;17.20;1.00;;;;;;5356666;26;20551;-75
2024/04/08 01:42:17;;;;;;;7.53;4.90;;;17.20;1.00;;;;;;5352076;26;20571;-74
2024/04/08 01:44:46;;;;;;;5.47;4.77;;;17.30;1.00;;;;;;5374593;26;21057;-74
2024/04/08 01:47:12;;;;;;;8.70;4.87;;;17.40;1.00;;;;;;5376450;26;20540;-76
2024/04/08 01:49:40;;;;;;;6.80;4.10;;;17.50;1.00;;;;;;5375690;26;21280;-74
2024/04/08 01:52:06;;;;;;;5.77;4.30;;;17.60;1.00;;;;;;5376470;26;20595;-75
2024/04/08 01:54:35;;;;;;;4.93;4.50;;;17.60;1.00;;;;;;5377563;26;21358;-74
2024/04/08 01:57:01;;;;;;;6.33;4.67;;;17.70;1.00;;;;;;5378601;26;20495;-75
2024/04/08 01:59:33;;;;;;;9.07;4.33;;;17.70;1.00;;;;;;5378276;26;20805;-74
2024/04/08 02:01:59;;;;;;;5.93;4.40;;;17.70;1.00;;;;;;5376691;26;20499;-74
2024/04/08 02:04:28;;;;;;;10.63;4.93;;;17.80;1.00;;;;;;5375941;26;20491;-74
2024/04/08 02:06:54;;;;;;;5.17;4.67;;;17.90;1.00;;;;;;5377682;26;20973;-74
2024/04/08 02:09:22;;;;;;;6.47;4.73;;;17.90;1.00;;;;;;5378032;26;20509;-74
2024/04/08 02:11:48;;;;;;;12.57;4.90;;;18.00;1.00;;;;;;5395014;26;20571;-75
2024/04/08 02:14:17;;;;;;;8.47;5.53;;;18.00;1.00;;;;;;5364827;26;20501;-74
2024/04/08 02:16:46;;;;;;;7.27;4.90;;;18.10;1.00;;;;;;5378376;26;21169;-74
2024/04/08 02:19:14;;;;;;;5.83;5.33;;;18.10;1.00;;;;;;5379272;26;20496;-74
2024/04/08 02:21:40;;;;;;;7.47;4.93;;;18.20;1.00;;;;;;5381949;26;20544;-74
2024/04/08 02:24:09;;;;;;;5.47;4.97;;;18.20;1.00;;;;;;5380212;26;22820;-75
2024/04/08 02:26:35;;;;;;;4.83;4.13;;;18.20;1.00;;;;;;5377550;26;20975;-75
2024/04/08 02:29:04;;;;;;;8.37;5.47;;;18.20;1.00;;;;;;5375328;26;21074;-74
2024/04/08 02:31:30;;;;;;;8.80;5.87;;;18.10;1.00;;;;;;5375452;26;21016;-75
2024/04/08 02:34:01;;;;;;;5.73;5.13;;;18.10;1.00;;;;;;5377240;26;20483;-74
2024/04/08 02:36:28;;;;;;;8.80;6.10;;;18.00;1.00;;;;;;5374544;26;20486;-72
2024/04/08 02:38:56;;;;;;;5.77;5.17;;;17.90;1.00;;;;;;5373052;26;20497;-74
2024/04/08 02:41:23;;;;;;;6.20;5.13;;;17.90;1.00;;;;;;5381894;26;21107;-75
2024/04/08 02:43:51;;;;;;;5.63;5.10;;;17.80;1.00;;;;;;5373568;26;20487;-75
2024/04/08 02:46:17;;;;;;;7.67;5.30;;;17.70;1.00;;;;;;5373505;26;21024;-74
2024/04/08 02:48:46;;;;;;;8.10;5.50;;;17.80;1.00;;;;;;5375503;26;20561;-74
2024/04/08 02:51:15;;;;;;;6.47;5.00;;;17.90;1.00;;;;;;5379865;26;20520;-73
2024/04/08 02:53:43;;;;;;;5.00;4.40;;;17.70;1.00;;;;;;5376483;26;20487;-74
2024/04/08 02:56:09;;;;;;;9.60;5.80;;;17.60;1.00;;;;;;5381151;26;20646;-73
2024/04/08 02:58:39;;;;;;;9.30;5.80;;;17.50;1.00;;;;;;5374983;26;21080;-74
2024/04/08 03:01:09;;;;;;;8.23;6.00;;;17.40;1.00;;;;;;5376218;26;20519;-74
2024/04/08 03:03:38;;;;;;;6.93;5.70;;;17.40;1.00;;;;;;5380281;26;20487;-74
2024/04/08 03:06:08;;;;;;;7.17;5.17;;;17.30;1.00;;;;;;5377525;26;20486;-74
2024/04/08 03:08:40;;;;;;;8.13;5.50;;;17.20;1.00;;;;;;5383269;26;20496;-75
2024/04/08 03:11:06;;;;;;;9.10;6.00;;;17.30;1.00;;;;;;5378067;26;20544;-74
2024/04/08 03:13:35;;;;;;;7.93;5.93;;;17.40;1.00;;;;;;5377044;26;20670;-74
2024/04/08 03:16:01;;;;;;;9.17;6.03;;;17.40;1.00;;;;;;5378210;26;20497;-75
2024/04/08 03:18:30;;;;;;;6.80;5.80;;;17.50;1.00;;;;;;5379777;26;20570;-72
2024/04/08 03:20:57;;;;;;;9.83;6.30;;;17.50;1.00;;;;;;5375187;26;20542;-71
2024/04/08 03:23:25;;;;;;;8.07;5.93;;;17.50;1.00;;;;;;5381473;26;20912;-72
2024/04/08 03:25:59;;;;;;;9.93;6.27;;;17.50;1.00;;;;;;5367880;26;20477;-72
2024/04/08 03:28:28;;;;;;;7.00;6.20;;;17.50;1.00;;;;;;5377551;26;20682;-73
2024/04/08 03:30:56;;;;;;;7.33;6.47;;;17.50;1.00;;;;;;5376202;26;20544;-72
2024/04/08 03:33:26;;;;;;;7.70;6.10;;;17.50;1.00;;;;;;5372674;26;20518;-72
2024/04/08 03:35:53;;;;;;;8.50;6.87;;;17.50;1.00;;;;;;5374424;26;20495;-73
2024/04/08 03:38:22;;;;;;;7.87;6.67;;;17.40;1.00;;;;;;5374904;26;20535;-73
2024/04/08 03:41:02;;;;;;;7.53;6.43;;;17.50;1.00;;;;;;5376305;26;21059;-72
2024/04/08 03:43:31;;;;;;;11.43;6.13;;;17.50;1.00;;;;;;5390683;26;20543;-72
2024/04/08 03:46:01;;;;;;;8.23;5.80;;;17.40;1.00;;;;;;5372247;26;20492;-74
2024/04/08 03:48:27;;;;;;;9.73;6.73;;;17.40;1.00;;;;;;5374898;26;20489;-73
2024/04/08 03:50:56;;;;;;;11.17;7.77;;;17.40;1.00;;;;;;5370906;26;20480;-72
2024/04/08 03:53:22;;;;;;;12.97;6.70;;;17.50;1.00;;;;;;5378914;26;20524;-72
2024/04/08 03:55:51;;;;;;;16.30;12.07;;;17.50;1.00;;;;;;5378643;26;20828;-71
2024/04/08 03:58:19;;;;;;;8.83;6.50;;;17.40;1.00;;;;;;5376112;26;20552;-72
2024/04/08 04:00:48;;;;;;;11.90;7.00;;;17.30;1.00;;;;;;5371716;26;20540;-74
2024/04/08 04:03:14;;;;;;;8.77;5.97;;;17.20;1.00;;;;;;5361464;26;20512;-72
2024/04/08 04:05:43;;;;;;;13.20;8.63;;;17.20;1.00;;;;;;5334304;26;20563;-72
2024/04/08 04:08:09;;;;;;;6.90;6.13;;;17.20;1.00;;;;;;5346997;26;20488;-73
2024/04/08 04:10:39;;;;;;;7.60;6.80;;;17.20;1.00;;;;;;5349923;26;20499;-72
2024/04/08 04:13:05;;;;;;;11.83;7.60;;;17.20;1.00;;;;;;5358229;26;21009;-72
2024/04/08 04:15:36;;;;;;;8.00;6.70;;;17.20;1.00;;;;;;5374843;26;20459;-73
2024/04/08 04:18:03;;;;;;;12.33;7.10;;;17.10;1.00;;;;;;5379727;26;20484;-72
2024/04/08 04:20:41;;;;;;;9.33;6.80;;;17.20;1.00;;;;;;5377656;26;20618;-73
2024/04/08 04:23:07;;;;;;;8.30;5.70;;;17.30;1.00;;;;;;5367491;26;20484;-72
2024/04/08 04:25:36;;;;;;;11.53;6.50;;;17.30;1.00;;;;;;5380299;26;21008;-72
2024/04/08 04:28:03;;;;;;;11.93;6.73;;;17.30;1.00;;;;;;5370716;26;20768;-74
2024/04/08 04:30:36;;;;;;;9.77;6.63;;;17.30;1.00;;;;;;5377685;26;20602;-74
2024/04/08 04:33:02;;;;;;;12.53;9.07;;;17.30;1.00;;;;;;5375591;26;20558;-74
2024/04/08 04:35:31;;;;;;;14.17;12.80;;;17.30;1.00;;;;;;5379244;26;20491;-73
2024/04/08 04:37:58;;;;;;;6.67;5.97;;;17.30;1.00;;;;;;5373916;26;20686;-75
2024/04/08 04:40:28;;;;;;;9.33;6.33;;;17.30;1.00;;;;;;5364360;26;20951;-75
2024/04/08 04:42:54;;;;;;;16.60;7.30;;;17.30;1.00;;;;;;5328281;26;20466;-74
2024/04/08 04:45:22;;;;;;;11.90;9.30;;;17.20;1.00;;;;;;5340635;26;20546;-74
2024/04/08 04:47:51;;;;;;;10.30;5.90;;;17.30;1.00;;;;;;5355217;26;20530;-74
2024/04/08 04:50:19;;;;;;;6.67;5.57;;;17.30;1.00;;;;;;5359284;26;20498;-74
2024/04/08 04:52:45;;;;;;;8.87;7.13;;;17.40;1.00;;;;;;5340939;26;20483;-74
2024/04/08 04:55:14;;;;;;;6.80;6.00;;;17.50;1.00;;;;;;5340796;26;21037;-74
2024/04/08 04:57:41;;;;;;;11.10;6.37;;;17.50;1.00;;;;;;5340471;26;20501;-74
2024/04/08 05:00:11;;;;;;;7.87;7.03;;;17.60;1.00;;;;;;5339736;26;21843;-75
2024/04/08 05:02:37;;;;;;;8.93;6.47;;;17.60;1.00;;;;;;5339311;26;21383;-74
2024/04/08 05:05:09;;;;;;;7.50;6.30;;;17.60;1.00;;;;;;5359422;26;20538;-75
2024/04/08 05:07:34;;;;;;;10.13;5.87;;;17.50;1.00;;;;;;5338484;26;23086;-75
2024/04/08 05:10:03;;;;;;;11.57;6.70;;;17.50;1.00;;;;;;5342254;26;20527;-75
2024/04/08 05:12:29;;;;;;;8.40;6.10;;;17.60;1.00;;;;;;5365497;26;20531;-74
2024/04/08 05:14:58;;;;;;;13.13;7.27;;;17.60;1.00;;;;;;5375418;26;20485;-74
2024/04/08 05:17:24;;;;;;;9.13;8.27;;;17.60;1.00;;;;;;5368289;26;21004;-74
2024/04/08 05:19:52;;;;;;;14.60;8.30;;;17.70;1.00;;;;;;5350219;26;20500;-73
2024/04/08 05:22:23;;;;;;;10.83;7.33;;;17.70;1.00;;;;;;5349657;26;20484;-74
2024/04/08 05:24:52;;;;;;;14.13;8.13;;;17.80;1.00;;;;;;5376307;26;20500;-74
2024/04/08 05:27:18;;;;;;;10.90;7.80;;;17.80;1.00;;;;;;5338690;26;20539;-74
2024/04/08 05:29:50;;;;;;;9.30;7.60;;;17.90;1.00;;;;;;5335894;26;20546;-75
2024/04/08 05:32:19;;;;;;;8.80;7.60;;;17.90;1.00;;;;;;5343946;26;20611;-77
2024/04/08 05:34:47;;;;;;;8.50;6.63;;;17.90;1.00;;;;;;5349519;26;20604;-75
2024/04/08 05:37:13;;;;;;;11.33;7.20;;;18.10;1.00;;;;;;5341800;26;20986;-80
2024/04/08 05:39:45;;;;;;;7.37;6.60;;;18.10;1.00;;;;;;5377243;26;20486;-75
2024/04/08 05:42:11;;;;;;;9.47;8.47;;;18.20;1.00;;;;;;5375624;26;20552;-75
2024/04/08 05:44:39;;;;;;;13.20;8.80;;;18.20;1.00;;;;;;5376118;26;20622;-75
2024/04/08 05:47:05;;;;;;;12.93;8.30;;;18.20;1.00;;;;;;5374851;26;20545;-75
2024/04/08 05:49:35;;;;;;;8.33;6.40;;;18.20;1.00;;;;;;5339662;26;20543;-76
2024/04/08 05:52:01;;;;;;;19.90;8.73;;;18.30;1.00;;;;;;5341231;26;21081;-73
2024/04/08 05:54:30;;;;;;;15.80;8.20;;;18.30;1.00;;;;;;5337328;26;20546;-75
2024/04/08 05:56:59;;;;;;;28.40;20.70;;;18.30;1.00;;;;;;5370622;26;21886;-75
2024/04/08 05:59:28;;;;;;;13.17;10.70;;;18.30;1.00;;;;;;5379413;26;20992;-75
2024/04/08 06:01:54;;;;;;;15.03;9.50;;;18.30;1.00;;;;;;5380272;26;20596;-75
2024/04/08 06:04:23;;;;;;;13.87;7.97;;;18.30;1.00;;;;;;5380926;26;20484;-76
2024/04/08 06:06:48;;;;;;;12.77;8.07;;;18.30;1.00;;;;;;5380725;26;20537;-75
2024/04/08 06:09:17;;;;;;;16.73;8.17;;;18.30;1.00;;;;;;5380203;26;20852;-73
2024/04/08 06:11:43;;;;;;;10.90;7.87;;;18.40;1.00;;;;;;5379607;26;20624;-73
2024/04/08 06:14:14;;;;;;;18.90;9.80;;;18.40;1.00;;;;;;5343850;26;20561;-73
2024/04/08 06:16:40;;;;;;;10.13;9.07;;;18.40;1.00;;;;;;5345362;26;20567;-74
2024/04/08 06:19:09;;;;;;;8.73;7.10;;;18.50;1.00;;;;;;5344467;26;20584;-74
2024/04/08 06:21:35;;;;;;;10.10;7.40;;;18.50;1.00;;;;;;5345408;26;20458;-74
2024/04/08 06:24:06;;;;;;;13.43;8.47;;;18.60;1.00;;;;;;5345089;26;20528;-73
2024/04/08 06:26:33;;;;;;;14.90;8.97;;;18.80;1.00;;;;;;5345794;26;20543;-73
2024/04/08 06:29:02;;;;;;;11.87;8.53;;;18.90;1.00;;;;;;5347517;26;20547;-76
2024/04/08 06:31:31;;;;;;;11.73;9.67;;;19.00;1.00;;;;;;5345090;26;20535;-72
2024/04/08 06:34:01;;;;;;;12.80;8.87;;;19.10;1.00;;;;;;5344439;26;20550;-73
2024/04/08 06:36:31;;;;;;;19.53;8.67;;;19.30;1.00;;;;;;5366734;26;20623;-73
2024/04/08 06:39:00;;;;;;;13.50;9.30;;;19.30;1.00;;;;;;5365471;26;20538;-73
2024/04/08 06:41:26;;;;;;;13.00;9.20;;;19.40;1.00;;;;;;5348651;26;20491;-71
2024/04/08 06:43:57;;;;;;;12.73;9.70;;;19.50;1.00;;;;;;5345105;26;20500;-72
2024/04/08 06:46:23;;;;;;;11.30;7.77;;;19.50;1.00;;;;;;5378857;26;20590;-74
2024/04/08 06:48:54;;;;;;;10.10;7.70;;;19.60;1.00;;;;;;5382246;26;20499;-72
2024/04/08 06:51:20;;;;;;;14.80;9.57;;;19.60;1.00;;;;;;5376219;26;20551;-72
2024/04/08 06:53:49;;;;;;;15.37;8.87;;;19.70;1.00;;;;;;5381579;26;20831;-72
2024/04/08 06:56:14;;;;;;;12.13;8.17;;;19.90;1.00;;;;;;5377191;26;20545;-72
2024/04/08 06:58:43;;;;;;;13.33;8.00;;;20.10;1.00;;;;;;5380883;26;20482;-75
2024/04/08 07:01:09;;;;;;;10.47;8.27;;;20.20;1.00;;;;;;5353242;26;20545;-73
2024/04/08 07:03:38;;;;;;;9.70;7.90;;;20.30;1.00;;;;;;5343683;26;20986;-73
2024/04/08 07:06:08;;;;;;;14.13;8.10;;;20.30;1.00;;;;;;5348739;26;20488;-73
2024/04/08 07:08:37;;;;;;;8.03;7.23;;;20.30;1.00;;;;;;5355625;26;21576;-73
2024/04/08 07:11:04;;;;;;;18.33;7.30;;;20.20;1.00;;;;;;5340084;26;21119;-73
2024/04/08 07:13:32;;;;;;;10.03;7.70;;;20.20;1.00;;;;;;5345776;26;20492;-72
2024/04/08 07:15:58;;;;;;;9.20;7.20;;;20.20;1.00;;;;;;5351528;26;20534;-72
2024/04/08 07:18:27;;;;;;;8.70;6.70;;;20.30;1.00;;;;;;5344821;26;20491;-73
2024/04/08 07:20:53;;;;;;;11.83;6.83;;;20.30;1.00;;;;;;5358303;26;20527;-73
2024/04/08 07:23:24;;;;;;;11.93;7.00;;;20.30;1.00;;;;;;5343908;26;20580;-74
2024/04/08 07:25:51;;;;;;;18.90;8.00;;;20.30;1.00;;;;;;5342491;26;20496;-74
2024/04/08 07:28:20;;;;;;;12.90;8.07;;;20.30;1.00;;;;;;5356331;26;20493;-73
2024/04/08 07:30:46;;;;;;;8.43;6.87;;;20.40;1.00;;;;;;5341430;26;20866;-72
2024/04/08 07:33:14;;;;;;;18.00;8.10;;;20.50;1.00;;;;;;5341524;26;20541;-72
2024/04/08 07:35:41;;;;;;;16.77;8.70;;;20.60;1.00;;;;;;5345090;26;20263;-74
2024/04/08 07:38:10;;;;;;;14.60;8.10;;;20.70;1.00;;;;;;5344133;26;20528;-73
2024/04/08 07:40:40;;;;;;;11.20;7.97;;;20.70;1.00;;;;;;5344997;26;20538;-72
2024/04/08 07:43:08;;;;;;;16.40;7.90;;;20.80;1.00;;;;;;5347689;26;20553;-74
2024/04/08 07:45:35;;;;;;;8.20;5.63;;;20.90;1.00;;;;;;5338331;26;20573;-73
2024/04/08 07:48:03;;;;;;;8.67;6.83;;;21.10;1.00;;;;;;5358946;26;20504;-73
2024/04/08 07:50:29;;;;;;;11.80;7.70;;;21.30;1.00;;;;;;5343242;26;20485;-73
2024/04/08 07:52:58;;;;;;;6.13;5.50;;;21.60;1.00;;;;;;5342432;26;21211;-73
2024/04/08 07:55:24;;;;;;;7.93;6.27;;;21.90;1.00;;;;;;5350966;26;20535;-72
2024/04/08 07:57:56;;;;;;;7.87;6.50;;;22.10;1.00;;;;;;5363594;26;20514;-73
2024/04/08 08:00:22;;;;;;;11.07;6.17;;;22.30;1.00;;;;;;5378301;26;20498;-72
2024/04/08 08:02:51;;;;;;;12.33;10.10;;;22.30;1.00;;;;;;5374311;26;20550;-74
2024/04/08 08:05:17;;;;;;;5.23;4.70;;;22.40;1.00;;;;;;5376320;26;20478;-72
2024/04/08 08:07:46;;;;;;;14.30;6.40;;;22.50;1.00;;;;;;5365767;26;20560;-72
2024/04/08 08:10:15;;;;;;;12.80;5.67;;;22.40;1.00;;;;;;5338552;26;20546;-72
2024/04/08 08:12:44;;;;;;;10.07;6.20;;;22.30;1.00;;;;;;5342659;26;21117;-72
2024/04/08 08:15:16;;;;;;;8.27;6.40;;;22.00;1.00;;;;;;5341756;26;20616;-72
2024/04/08 08:17:42;;;;;;;12.60;6.30;;;22.00;1.00;;;;;;5344412;26;20486;-73
2024/04/08 08:20:11;;;;;;;9.30;5.80;;;21.90;1.00;;;;;;5340818;26;20892;-75
2024/04/08 08:22:39;;;;;;;8.70;6.67;;;22.00;1.00;;;;;;5334913;26;20565;-72
2024/04/08 08:25:09;;;;;;;10.43;5.90;;;22.00;1.00;;;;;;5341083;26;20610;-74
2024/04/08 08:27:38;;;;;;;13.00;6.77;;;22.00;1.00;;;;;;5367016;26;20545;-72
2024/04/08 08:30:07;;;;;;;10.33;6.27;;;22.00;1.00;;;;;;5376791;26;20561;-72
2024/04/08 08:32:39;;;;;;;8.70;6.37;;;22.00;1.00;;;;;;5379548;26;20484;-72
2024/04/08 08:35:07;;;;;;;10.03;5.50;;;22.00;1.00;;;;;;5378766;26;20532;-73
2024/04/08 08:37:33;;;;;;;10.47;6.17;;;22.10;1.00;;;;;;5378607;26;20554;-74
2024/04/08 08:40:02;;;;;;;16.00;6.67;;;22.00;1.00;;;;;;5376743;26;20489;-73
2024/04/08 08:42:29;;;;;;;7.83;5.37;;;21.60;1.00;;;;;;5345205;26;20569;-73
2024/04/08 08:45:00;;;;;;;11.13;5.80;;;21.90;1.00;;;;;;5341337;26;20475;-73
2024/04/08 08:47:28;;;;;;;10.13;6.47;;;22.00;1.00;;;;;;5341938;26;20490;-73
2024/04/08 08:50:02;;;;;;;8.00;5.30;;;22.10;1.00;;;;;;5355922;26;21031;-73
2024/04/08 08:52:28;;;;;;;10.73;5.90;;;22.10;1.00;;;;;;5343506;26;20628;-72
2024/04/08 08:54:57;;;;;;;8.80;5.87;;;21.90;1.00;;;;;;5341646;26;20498;-73
2024/04/08 08:57:24;;;;;;;10.33;5.77;;;21.90;1.00;;;;;;5342929;26;20541;-72
2024/04/08 08:59:53;;;;;;;7.17;5.30;;;21.90;1.00;;;;;;5340712;26;20495;-73
2024/04/08 09:02:19;;;;;;;10.40;5.60;;;22.10;1.00;;;;;;5360961;26;20493;-73
2024/04/08 09:04:48;;;;;;;9.00;5.27;;;22.20;1.00;;;;;;5375541;26;20556;-73
2024/04/08 09:07:17;;;;;;;16.20;6.90;;;22.30;1.00;;;;;;5379336;26;22819;-72
2024/04/08 09:09:55;;;;;;;21.60;10.70;;;22.30;1.00;;;;;;5381122;26;20526;-72
2024/04/08 09:12:21;;;;;;;4.53;4.13;;;22.60;1.00;;;;;;5378701;26;20487;-73
2024/04/08 09:14:52;;;;;;;12.67;5.87;;;23.00;1.00;;;;;;5366702;26;22346;-73
2024/04/08 09:17:18;;;;;;;6.70;5.03;;;23.40;1.00;;;;;;5374937;26;20988;-71
2024/04/08 09:19:47;;;;;;;6.73;5.20;;;24.00;1.00;;;;;;5378606;26;20606;-73
2024/04/08 09:22:16;;;;;;;12.63;5.20;;;24.60;1.00;;;;;;5375982;26;20610;-71
2024/04/08 09:24:44;;;;;;;5.37;4.87;;;24.80;1.00;;;;;;5380083;26;20508;-72
2024/04/08 09:27:11;;;;;;;5.87;4.50;;;24.70;1.00;;;;;;5378008;26;21016;-72
2024/04/08 09:29:39;;;;;;;5.00;4.60;;;24.50;1.00;;;;;;5375707;26;20530;-72
2024/04/08 09:32:08;;;;;;;9.33;4.97;;;24.60;1.00;;;;;;5378250;26;20501;-73
2024/04/08 09:34:36;;;;;;;5.93;5.27;;;24.90;1.00;;;;;;5352480;26;20506;-73
2024/04/08 09:37:03;;;;;;;6.33;5.30;;;25.10;1.00;;;;;;5344435;26;21004;-72
2024/04/08 09:39:35;;;;;;;7.20;4.87;;;24.90;1.00;;;;;;5342319;26;20999;-72
2024/04/08 09:42:03;;;;;;;6.77;4.67;;;24.70;1.00;;;;;;5356698;26;20486;-72
2024/04/08 09:44:33;;;;;;;8.60;5.50;;;24.80;1.00;;;;;;5342323;26;20613;-73
2024/04/08 09:47:00;;;;;;;7.57;5.50;;;24.80;1.00;;;;;;5357161;26;21040;-73
2024/04/08 09:49:30;;;;;;;10.60;5.63;;;25.00;1.00;;;;;;5345437;26;20525;-74
2024/04/08 09:51:56;;;;;;;10.03;5.60;;;25.30;1.00;;;;;;5340851;26;20490;-75
2024/04/08 09:54:25;;;;;;;8.60;5.10;;;25.60;1.00;;;;;;5342640;26;20576;-73
2024/04/08 09:56:58;;;;;;;10.77;5.00;;;26.00;1.00;;;;;;5357238;26;20571;-74
2024/04/08 09:59:29;;;;;;;14.60;5.10;;;26.00;1.00;;;;;;5338968;26;20645;-74
2024/04/08 10:01:58;;;;;;;7.90;6.20;;;25.50;1.00;;;;;;5341569;26;20537;-72
2024/04/08 10:04:27;;;;;;;7.70;4.70;;;25.50;1.00;;;;;;5351891;26;21027;-72
2024/04/08 10:06:55;;;;;;;12.10;6.00;;;25.70;1.00;;;;;;5363594;26;20478;-74
2024/04/08 10:09:26;;;;;;;7.73;5.70;;;26.10;1.00;;;;;;5360307;26;20599;-72
2024/04/08 10:11:55;;;;;;;10.40;5.30;;;26.60;1.00;;;;;;5372462;26;20515;-73
2024/04/08 10:14:27;;;;;;;8.73;5.63;;;27.70;1.00;;;;;;5374868;26;21073;-73
2024/04/08 10:16:53;;;;;;;8.83;5.33;;;28.70;1.00;;;;;;5377678;26;20569;-72
2024/04/08 10:19:23;;;;;;;6.93;5.17;;;29.60;1.00;;;;;;5380480;26;20588;-72
2024/04/08 10:21:53;;;;;;;9.60;5.20;;;30.40;1.00;;;;;;5376180;26;20501;-73
2024/04/08 10:24:32;;;;;;;5.40;4.90;;;31.60;1.00;;;;;;5354762;26;20555;-73
2024/04/08 10:27:01;;;;;;;7.30;5.10;;;32.90;1.00;;;;;;5343812;26;20550;-72
2024/04/08 10:29:32;;;;;;;9.87;4.30;;;33.80;1.00;;;;;;5348631;26;20474;-72
2024/04/08 10:31:58;;;;;;;8.30;4.80;;;34.30;1.00;;;;;;5352562;26;20657;-72
2024/04/08 10:34:27;;;;;;;6.50;4.30;;;34.70;1.00;;;;;;5356020;26;20591;-71
2024/04/08 10:36:54;;;;;;;13.97;5.50;;;35.10;1.00;;;;;;5362491;26;20543;-72
2024/04/08 10:39:26;;;;;;;10.10;6.03;;;35.80;1.00;;;;;;5344801;26;20520;-71
2024/04/08 10:41:54;;;;;;;10.03;7.83;;;36.20;1.00;;;;;;5345100;26;20561;-72
2024/04/08 10:44:26;;;;;;;7.00;4.87;;;36.60;1.00;;;;;;5347806;26;21262;-72
2024/04/08 10:46:53;;;;;;;12.33;5.40;;;37.00;1.00;;;;;;5349317;26;20487;-73
2024/04/08 10:49:22;;;;;;;10.53;6.00;;;37.10;1.00;;;;;;5359621;26;20931;-73
2024/04/08 10:51:50;;;;;;;6.17;4.60;;;37.50;1.00;;;;;;5358353;26;20463;-72
2024/04/08 10:54:20;;;;;;;7.17;3.73;;;37.90;1.00;;;;;;5343229;26;21019;-72
2024/04/08 10:56:46;;;;;;;10.03;4.57;;;37.40;1.00;;;;;;5343957;26;20525;-73
2024/04/08 10:59:15;;;;;;;8.40;4.20;;;37.10;1.00;;;;;;5342801;26;20559;-72
2024/04/08 11:01:45;;;;;;;8.13;4.00;;;37.00;1.00;;;;;;5344266;26;20491;-73
2024/04/08 11:04:14;;;;;;;6.53;4.27;;;36.40;1.00;;;;;;5366135;26;20490;-73
2024/04/08 11:06:42;;;;;;;10.00;3.97;;;36.40;1.00;;;;;;5378523;26;20501;-74
2024/04/08 11:09:11;;;;;;;7.00;3.37;;;35.90;1.00;;;;;;5379338;26;20597;-73
2024/04/08 11:11:38;;;;;;;8.60;4.20;;;35.70;1.00;;;;;;5348801;26;20546;-72
2024/04/08 11:14:08;;;;;;;9.23;4.20;;;35.60;1.00;;;;;;5346109;26;20571;-73
2024/04/08 11:16:34;;;;;;;8.67;4.70;;;35.80;1.00;;;;;;5340993;26;20495;-73
2024/04/08 11:19:06;;;;;;;12.83;4.43;;;35.90;1.00;;;;;;5345986;26;20482;-73
2024/04/08 11:21:33;;;;;;;9.37;3.67;;;35.90;1.00;;;;;;5346500;26;20538;-72
2024/04/08 11:24:02;;;;;;;7.33;4.27;;;36.30;1.00;;;;;;5344648;26;20475;-73
2024/04/08 11:26:30;;;;;;;6.00;4.30;;;37.40;1.00;;;;;;5340882;26;20485;-72
2024/04/08 11:29:03;;;;;;;13.00;6.23;;;38.30;1.00;;;;;;5365396;26;20645;-73
2024/04/08 11:31:29;;;;;;;8.13;3.80;;;38.60;1.00;;;;;;5378238;26;20485;-72
2024/04/08 11:33:57;;;;;;;6.40;4.00;;;38.70;1.00;;;;;;5368408;26;20489;-73
2024/04/08 11:36:27;;;;;;;11.73;4.43;;;38.20;1.00;;;;;;5381178;26;20497;-74
2024/04/08 11:38:56;;;;;;;5.60;3.80;;;37.40;1.00;;;;;;5379571;26;20522;-72
2024/04/08 11:41:22;;;;;;;8.73;4.23;;;37.00;1.00;;;;;;5380879;26;20533;-73
2024/04/08 11:43:51;;;;;;;9.10;4.10;;;37.10;1.00;;;;;;5382789;26;20542;-72
2024/04/08 11:46:17;;;;;;;7.90;3.70;;;37.20;1.00;;;;;;5384117;26;20494;-72
2024/04/08 11:48:46;;;;;;;4.00;3.60;;;38.00;1.00;;;;;;5353688;26;21063;-73
2024/04/08 11:51:12;;;;;;;7.67;4.40;;;38.10;1.00;;;;;;5341362;26;20499;-73
2024/04/08 11:53:45;;;;;;;5.83;3.90;;;38.10;1.00;;;;;;5349537;26;20499;-72
2024/04/08 11:56:13;;;;;;;6.37;4.20;;;38.20;1.00;;;;;;5374531;26;21044;-73
2024/04/08 11:58:41;;;;;;;6.77;4.03;;;38.70;1.00;;;;;;5378126;26;20574;-72
2024/04/08 12:01:07;;;;;;;9.20;4.80;;;39.20;1.00;;;;;;5378402;26;20547;-75
2024/04/08 12:03:37;;;;;;;9.43;8.40;;;39.90;1.00;;;;;;5377882;26;20486;-73
2024/04/08 12:06:09;;;;;;;4.67;3.70;;;39.80;1.00;;;;;;5374422;26;20497;-74
2024/04/08 12:08:40;;;;;;;6.03;3.60;;;39.90;1.00;;;;;;5355150;26;20571;-74
2024/04/08 12:11:10;;;;;;;6.40;4.53;;;40.00;1.00;;;;;;5350563;26;20552;-73
2024/04/08 12:13:39;;;;;;;7.20;4.03;;;39.80;1.00;;;;;;5350030;26;20576;-74
2024/04/08 12:16:06;;;;;;;6.37;4.20;;;40.10;1.00;;;;;;5350369;26;20654;-73
2024/04/08 12:18:35;;;;;;;8.50;4.67;;;40.40;1.00;;;;;;5365732;26;20543;-72
2024/04/08 12:21:00;;;;;;;8.43;5.77;;;40.80;1.00;;;;;;5349578;26;20491;-74
2024/04/08 12:23:29;;;;;;;6.37;4.67;;;40.60;1.00;;;;;;5365123;26;20506;-73
2024/04/08 12:25:55;;;;;;;8.10;4.63;;;41.20;1.00;;;;;;5349597;26;20674;-74
2024/04/08 12:28:26;;;;;;;7.30;3.90;;;40.70;1.00;;;;;;5350661;26;21618;-72
2024/04/08 12:30:53;;;;;;;5.37;3.50;;;40.60;1.00;;;;;;5349579;26;20535;-72
2024/04/08 12:33:22;;;;;;;6.50;4.13;;;39.80;1.00;;;;;;5350477;26;21004;-73
2024/04/08 12:35:48;;;;;;;6.30;4.00;;;39.30;1.00;;;;;;5349013;26;20495;-75
2024/04/08 12:38:17;;;;;;;10.83;3.97;;;39.10;1.00;;;;;;5350627;26;20964;-72
2024/04/08 12:40:43;;;;;;;6.30;4.03;;;39.30;1.00;;;;;;5348672;26;20819;-73
2024/04/08 12:43:12;;;;;;;8.23;4.20;;;38.90;1.00;;;;;;5371577;26;21021;-73
2024/04/08 12:45:41;;;;;;;8.43;4.40;;;39.10;1.00;;;;;;5383934;26;20616;-73
2024/04/08 12:48:10;;;;;;;8.67;5.03;;;39.20;1.00;;;;;;5381416;26;21038;-72
2024/04/08 12:50:41;;;;;;;9.17;4.60;;;38.70;1.00;;;;;;5374839;26;20518;-73
2024/04/08 12:53:13;;;;;;;9.63;4.40;;;38.50;1.00;;;;;;5384603;26;20962;-73
2024/04/08 12:55:39;;;;;;;11.93;4.93;;;37.70;1.00;;;;;;5386777;26;20545;-73
2024/04/08 12:58:11;;;;;;;7.70;4.40;;;37.30;1.00;;;;;;5384173;26;20613;-74